Time;durP1;ratioP1;P1;durP2;ratioP2;P2;SDS_P1;SDS_P2;PMS_P1;PMS_P2;Temp;Humidity;BMP_temperature;BMP_pressure;BME280_temperature;BME280_humidity;BME280_pressure;Samples;Min_cycle;Max_cycle;Signal;HPM_P1;HPM_P2
2022/07/10 00:00:08;;;;;;;6.43;2.90;;;;;;;16.10;65.90;101827.78;5101453;28;20176;-67
2022/07/10 00:02:33;;;;;;;4.17;2.37;;;;;;;16.50;64.84;101822.63;5096335;28;20400;-67
2022/07/10 00:04:58;;;;;;;7.03;2.70;;;;;;;16.10;65.77;101813.75;5101168;28;20476;-67
2022/07/10 00:07:24;;;;;;;7.43;2.67;;;;;;;16.04;65.77;101814.59;5101353;28;20242;-66
2022/07/10 00:09:49;;;;;;;5.90;2.70;;;;;;;16.18;65.14;101817.28;5101436;28;20203;-66
2022/07/10 00:12:14;;;;;;;5.67;2.47;;;;;;;16.16;65.55;101809.38;5101464;28;20173;-65
2022/07/10 00:14:40;;;;;;;4.20;2.70;;;;;;;16.16;65.69;101813.78;5101134;28;20493;-67
2022/07/10 00:17:05;;;;;;;3.60;2.60;;;;;;;16.73;64.06;101813.03;5101672;28;20225;-69
2022/07/10 00:19:30;;;;;;;3.40;2.33;;;;;;;16.46;64.11;101814.75;5101252;28;20164;-69
2022/07/10 00:21:56;;;;;;;3.27;2.53;;;;;;;15.98;65.79;101812.81;5100978;28;20247;-69
2022/07/10 00:24:21;;;;;;;7.00;2.87;;;;;;;16.32;65.20;101815.56;5101224;28;20453;-70
2022/07/10 00:26:47;;;;;;;5.60;3.03;;;;;;;16.57;64.20;101815.63;5100937;28;20266;-66
2022/07/10 00:29:13;;;;;;;3.53;2.40;;;;;;;16.21;64.93;101817.31;5100986;28;20203;-67
2022/07/10 00:31:40;;;;;;;6.93;3.10;;;;;;;16.73;63.68;101810.41;5092960;28;20422;-66
2022/07/10 00:34:06;;;;;;;4.33;2.50;;;;;;;16.25;64.72;101810.28;5080571;28;20414;-68
2022/07/10 00:36:32;;;;;;;4.30;2.57;;;;;;;16.52;64.83;101800.72;5080717;28;20711;-68
2022/07/10 00:38:57;;;;;;;3.53;2.30;;;;;;;16.17;64.98;101798.00;5081008;28;20157;-68
2022/07/10 00:41:22;;;;;;;3.30;2.67;;;;;;;16.00;66.13;101803.19;5080480;28;20458;-68
2022/07/10 00:44:00;;;;;;;7.20;3.03;;;;;;;15.88;66.34;101802.25;5081040;28;20204;-68
2022/07/10 00:46:27;;;;;;;6.23;2.53;;;;;;;16.17;65.64;101799.75;5100603;28;20160;-68
2022/07/10 00:48:53;;;;;;;4.40;2.80;;;;;;;16.00;66.32;101804.94;5100643;28;20468;-68
2022/07/10 00:51:21;;;;;;;3.50;2.30;;;;;;;15.66;66.64;101802.97;5100081;28;20391;-68
2022/07/10 00:53:47;;;;;;;4.70;3.30;;;;;;;15.94;65.59;101803.16;5100419;28;20191;-69
2022/07/10 00:56:19;;;;;;;6.60;3.00;;;;;;;15.72;66.04;101804.78;5100402;28;20648;-69
2022/07/10 00:58:45;;;;;;;7.80;2.47;;;;;;;15.84;65.85;101798.72;5099682;28;20399;-70
2022/07/10 01:01:11;;;;;;;3.97;2.50;;;;;;;16.01;65.30;101798.81;5100530;28;20385;-69
2022/07/10 01:03:37;;;;;;;6.10;2.80;;;;;;;15.89;65.43;101793.50;5099614;28;20428;-70
2022/07/10 01:06:03;;;;;;;3.30;3.00;;;;;;;15.32;66.30;101799.28;5100121;28;20256;-70
2022/07/10 01:08:28;;;;;;;5.77;2.73;;;;;;;15.89;65.58;101796.13;5100033;28;20433;-70
2022/07/10 01:10:53;;;;;;;6.13;2.80;;;;;;;15.90;64.79;101782.09;5100672;28;20422;-70
2022/07/10 01:13:19;;;;;;;5.07;2.40;;;;;;;15.82;64.58;101789.97;5099980;28;20214;-69
2022/07/10 01:15:45;;;;;;;5.10;2.70;;;;;;;16.05;64.35;101789.16;5099297;28;20560;-70
2022/07/10 01:18:10;;;;;;;5.83;2.63;;;;;;;15.63;64.94;101791.59;5099797;28;20777;-69
2022/07/10 01:20:36;;;;;;;6.03;2.70;;;;;;;15.68;65.03;101781.94;5099978;28;20176;-70
2022/07/10 01:23:01;;;;;;;5.27;2.93;;;;;;;15.82;64.51;101776.81;5099893;28;20161;-70
2022/07/10 01:25:27;;;;;;;6.70;3.07;;;;;;;15.25;65.87;101789.56;5100257;28;20253;-69
2022/07/10 01:27:52;;;;;;;5.60;2.90;;;;;;;15.65;65.24;101788.09;5099790;28;20165;-70
2022/07/10 01:30:19;;;;;;;6.60;2.80;;;;;;;15.91;64.89;101784.75;5099822;28;20172;-69
2022/07/10 01:32:45;;;;;;;6.30;2.97;;;;;;;15.87;64.86;101780.34;5100032;28;20197;-69
2022/07/10 01:35:11;;;;;;;5.07;3.00;;;;;;;15.79;65.84;101774.13;5099492;28;20406;-70
2022/07/10 01:37:37;;;;;;;4.00;2.73;;;;;;;15.56;67.42;101784.53;5098993;28;20527;-69
2022/07/10 01:40:03;;;;;;;4.00;2.67;;;;;;;15.52;68.09;101775.75;5100043;28;20388;-69
2022/07/10 01:42:28;;;;;;;7.33;2.90;;;;;;;15.43;68.61;101775.69;5099549;28;20711;-68
2022/07/10 01:44:54;;;;;;;4.30;2.80;;;;;;;15.65;68.10;101764.44;5099209;28;20437;-69
2022/07/10 01:47:24;;;;;;;3.97;2.63;;;;;;;15.51;68.83;101770.50;5100013;28;20229;-69
2022/07/10 01:49:49;;;;;;;5.67;2.80;;;;;;;15.62;68.40;101768.78;5099361;28;20225;-68
2022/07/10 01:52:15;;;;;;;3.80;2.70;;;;;;;15.86;67.60;101767.16;5099426;28;20419;-69
2022/07/10 01:54:40;;;;;;;3.60;2.63;;;;;;;15.71;68.12;101762.69;5099415;28;20184;-68
2022/07/10 01:57:06;;;;;;;3.37;2.40;;;;;;;15.81;68.05;101768.03;5099210;28;20168;-69
2022/07/10 01:59:31;;;;;;;4.70;2.50;;;;;;;15.37;68.38;101771.28;5099507;28;20196;-69
2022/07/10 02:01:56;;;;;;;5.00;3.10;;;;;;;15.69;67.89;101765.31;5099706;28;20167;-69
2022/07/10 02:07:05;;;;;;;5.90;3.03;;;;;;;15.69;68.08;101769.72;5099252;28;20203;-69
2022/07/10 02:09:31;;;;;;;7.40;2.57;;;;;;;15.87;67.03;101759.31;5099017;28;20495;-69
2022/07/10 02:11:56;;;;;;;8.13;3.10;;;;;;;15.81;67.55;101759.28;5099032;28;20164;-70
2022/07/10 02:14:21;;;;;;;5.10;2.73;;;;;;;16.02;67.66;101760.22;5099187;28;20484;-70
2022/07/10 02:16:47;;;;;;;6.00;2.77;;;;;;;15.62;67.99;101753.03;5098812;28;20198;-69
2022/07/10 02:19:12;;;;;;;5.63;2.80;;;;;;;15.90;67.14;101743.53;5098880;28;20160;-69
2022/07/10 02:21:37;;;;;;;3.93;2.40;;;;;;;15.85;67.17;101745.28;5099486;28;20206;-69
2022/07/10 02:24:03;;;;;;;5.47;2.63;;;;;;;15.78;67.96;101746.97;5098742;28;20210;-69
2022/07/10 02:26:28;;;;;;;9.60;3.00;;;;;;;15.68;68.21;101742.53;5098836;28;20191;-70
2022/07/10 02:28:54;;;;;;;6.30;2.93;;;;;;;15.78;67.43;101748.72;5099233;28;20170;-69
2022/07/10 02:31:19;;;;;;;4.37;2.93;;;;;;;15.81;67.12;101743.50;5098415;28;20176;-69
2022/07/10 02:33:44;;;;;;;10.33;3.23;;;;;;;15.91;66.63;101734.78;5098621;28;20196;-69
2022/07/10 02:36:10;;;;;;;9.17;3.17;;;;;;;16.07;66.78;101740.94;5099151;28;20196;-69
2022/07/10 02:38:35;;;;;;;3.93;2.80;;;;;;;16.07;66.55;101748.84;5098728;28;20172;-69
2022/07/10 02:41:00;;;;;;;5.00;3.57;;;;;;;15.65;67.69;101747.78;5098810;28;20218;-69
2022/07/10 02:43:26;;;;;;;11.70;3.53;;;;;;;15.70;67.98;101751.31;5098539;28;20238;-69
2022/07/10 02:45:51;;;;;;;13.73;3.20;;;;;;;15.68;67.70;101749.53;5098271;28;20561;-70
2022/07/10 02:48:18;;;;;;;6.53;3.03;;;;;;;15.66;67.98;101749.53;5098287;28;20582;-69
2022/07/10 02:50:43;;;;;;;6.83;4.20;;;;;;;15.79;67.88;101740.84;5098773;28;20175;-69
2022/07/10 02:53:08;;;;;;;7.50;3.50;;;;;;;15.68;68.18;101746.91;5098191;28;20674;-69
2022/07/10 02:55:34;;;;;;;6.93;3.13;;;;;;;15.25;69.26;101753.69;5098391;28;20171;-71
2022/07/10 02:57:59;;;;;;;6.57;3.40;;;;;;;15.51;68.71;101750.34;5098871;28;20269;-69
2022/07/10 03:00:26;;;;;;;4.70;3.10;;;;;;;15.75;68.35;101744.31;5098331;28;20191;-70
2022/07/10 03:02:52;;;;;;;4.30;3.10;;;;;;;16.03;67.15;101754.09;5097512;28;20164;-70
2022/07/10 03:05:17;;;;;;;7.03;3.60;;;;;;;15.75;68.35;101749.59;5098527;28;20757;-69
2022/07/10 03:07:43;;;;;;;10.20;3.93;;;;;;;16.06;66.66;101755.00;5097712;28;20180;-68
2022/07/10 03:10:09;;;;;;;9.00;4.43;;;;;;;15.71;67.35;101753.06;5098057;28;20534;-70
2022/07/10 03:12:34;;;;;;;6.07;3.90;;;;;;;15.89;67.03;101747.03;5098663;28;20187;-69
2022/07/10 03:15:00;;;;;;;5.73;3.13;;;;;;;15.90;66.47;101750.53;5097999;28;20415;-69
2022/07/10 03:17:25;;;;;;;6.67;3.30;;;;;;;15.88;66.81;101747.03;5098181;28;20196;-69
2022/07/10 03:19:50;;;;;;;10.13;3.90;;;;;;;15.89;66.40;101751.44;5098645;28;20164;-69
2022/07/10 03:22:16;;;;;;;7.00;3.73;;;;;;;16.35;65.59;101738.41;5098090;28;20649;-69
2022/07/10 03:24:43;;;;;;;6.70;3.57;;;;;;;16.51;64.87;101741.94;5097878;28;20475;-69
2022/07/10 03:27:08;;;;;;;7.17;3.93;;;;;;;16.16;65.35;101748.88;5098643;28;20171;-69
2022/07/10 03:29:33;;;;;;;9.57;3.57;;;;;;;16.31;65.40;101744.53;5098165;28;20381;-70
2022/07/10 03:31:59;;;;;;;8.17;3.70;;;;;;;16.15;65.38;101743.59;5098002;28;20183;-69
2022/07/10 03:34:24;;;;;;;9.43;3.80;;;;;;;16.09;65.16;101743.59;5098220;28;20161;-69
2022/07/10 03:36:50;;;;;;;6.20;3.63;;;;;;;16.08;65.40;101742.72;5097974;28;20428;-69
2022/07/10 03:39:15;;;;;;;6.40;3.87;;;;;;;16.17;65.07;101740.09;5098008;28;20172;-69
2022/07/10 03:41:40;;;;;;;8.93;3.77;;;;;;;16.07;65.34;101732.19;5098169;28;20231;-68
2022/07/10 03:44:06;;;;;;;4.33;3.63;;;;;;;16.33;64.58;101737.50;5097739;28;20186;-69
2022/07/10 03:46:31;;;;;;;6.60;3.70;;;;;;;16.48;63.97;101732.28;5097813;28;20175;-69
2022/07/10 03:48:56;;;;;;;10.00;3.67;;;;;;;16.42;63.85;101737.53;5097694;28;20192;-68
2022/07/10 03:51:22;;;;;;;7.60;4.10;;;;;;;16.52;63.89;101738.44;5097935;28;20556;-69
2022/07/10 03:53:47;;;;;;;9.03;4.20;;;;;;;16.69;63.92;101735.78;5098180;28;20286;-69
2022/07/10 03:57:53;;;;;;;7.30;3.70;;;;;;;16.76;62.71;101737.53;5097654;28;20171;-69
2022/07/10 03:58:58;;;;;;;10.33;3.87;;;;;;;16.55;63.89;101735.78;5097580;28;20182;-69
2022/07/10 04:01:23;;;;;;;7.87;3.60;;;;;;;16.33;63.20;101730.50;5097807;28;20467;-69
2022/07/10 04:03:48;;;;;;;10.40;4.00;;;;;;;16.31;63.06;101726.09;5097491;28;20224;-69
2022/07/10 04:06:14;;;;;;;9.80;4.60;;;;;;;15.95;64.96;101731.28;5098264;28;20199;-69
2022/07/10 04:08:39;;;;;;;6.63;3.80;;;;;;;16.30;64.19;101717.34;5097557;28;20188;-69
2022/07/10 04:11:04;;;;;;;11.83;3.80;;;;;;;16.29;64.28;101719.94;5097001;28;20213;-69
2022/07/10 04:13:30;;;;;;;7.93;4.10;;;;;;;16.33;64.10;101719.06;5097738;28;20199;-69
2022/07/10 04:15:55;;;;;;;9.93;3.97;;;;;;;16.30;63.38;101716.44;5097572;28;20530;-69
2022/07/10 04:18:20;;;;;;;9.73;3.83;;;;;;;16.34;63.18;101723.47;5097530;28;20441;-70
2022/07/10 04:20:46;;;;;;;8.40;4.00;;;;;;;16.22;64.10;101724.31;5101355;28;20238;-69
2022/07/10 04:23:11;;;;;;;10.97;4.37;;;;;;;16.12;63.22;101712.91;5101089;28;20204;-69
2022/07/10 04:25:37;;;;;;;7.40;4.17;;;;;;;16.55;62.23;101713.84;5100983;28;20235;-69
2022/07/10 04:28:02;;;;;;;9.33;4.30;;;;;;;16.10;63.24;101709.41;5101242;28;20165;-70
2022/07/10 04:30:27;;;;;;;10.97;4.97;;;;;;;16.19;63.35;101715.56;5101046;28;20173;-69
2022/07/10 04:32:53;;;;;;;11.13;3.77;;;;;;;16.77;61.24;101707.69;5100917;28;20468;-69
2022/07/10 04:35:18;;;;;;;9.67;4.53;;;;;;;18.10;56.54;101709.09;5101195;28;20320;-70
2022/07/10 04:37:44;;;;;;;11.47;4.23;;;;;;;18.62;55.22;101703.44;5100739;28;20168;-70
2022/07/10 04:40:10;;;;;;;9.70;4.20;;;;;;;20.28;50.47;101696.22;5101143;28;20168;-71
2022/07/10 04:42:35;;;;;;;9.93;4.20;;;;;;;20.09;50.69;101699.16;5100665;28;20220;-70
2022/07/10 04:45:02;;;;;;;11.77;3.47;;;;;;;20.14;49.81;101696.44;5100307;28;20484;-71
2022/07/10 04:47:27;;;;;;;11.73;5.20;;;;;;;18.96;52.41;101711.06;5100802;28;20592;-71
2022/07/10 04:49:52;;;;;;;6.57;3.67;;;;;;;19.46;51.32;101710.56;5100585;28;20493;-69
2022/07/10 04:52:18;;;;;;;9.23;4.17;;;;;;;19.45;50.05;101709.66;5100505;28;20195;-71
2022/07/10 04:54:43;;;;;;;7.50;4.13;;;;;;;18.56;52.17;101718.44;5100572;28;20156;-70
2022/07/10 04:57:08;;;;;;;8.83;4.20;;;;;;;18.17;53.55;101719.59;5100270;28;20172;-71
2022/07/10 04:59:34;;;;;;;11.87;4.63;;;;;;;18.24;53.03;101724.81;5100505;28;20200;-71
2022/07/10 05:01:59;;;;;;;8.27;3.93;;;;;;;18.23;53.86;101721.31;5100801;28;20243;-70
2022/07/10 05:04:24;;;;;;;12.80;4.10;;;;;;;17.50;55.05;101723.41;5100012;28;20230;-70
2022/07/10 05:06:50;;;;;;;9.40;4.07;;;;;;;18.01;54.21;101732.00;5100454;28;20168;-70
2022/07/10 05:09:15;;;;;;;11.20;4.50;;;;;;;17.93;53.06;101725.91;5100563;28;20204;-71
2022/07/10 05:11:41;;;;;;;9.67;4.80;;;;;;;18.40;52.33;101726.50;5100130;28;20160;-70
2022/07/10 05:14:06;;;;;;;10.67;4.90;;;;;;;19.74;48.50;101720.78;5100091;28;20247;-70
2022/07/10 05:16:31;;;;;;;9.63;4.40;;;;;;;20.04;46.88;101716.91;5100529;28;20563;-71
2022/07/10 05:18:57;;;;;;;8.57;4.33;;;;;;;20.07;47.12;101714.19;5100108;28;20183;-70
2022/07/10 05:21:22;;;;;;;9.90;4.63;;;;;;;20.25;46.60;101714.81;5100211;28;20172;-70
2022/07/10 05:23:48;;;;;;;10.33;4.17;;;;;;;22.23;42.52;101713.72;5099595;28;20184;-71
2022/07/10 05:26:13;;;;;;;7.70;4.10;;;;;;;21.03;45.68;101716.19;5099779;28;20164;-71
2022/07/10 05:28:38;;;;;;;10.03;4.10;;;;;;;21.43;43.55;101713.66;5099848;28;20183;-69
2022/07/10 05:31:04;;;;;;;10.17;4.50;;;;;;;22.65;41.86;101708.28;5099953;28;20171;-69
2022/07/10 05:33:30;;;;;;;10.70;4.00;;;;;;;24.27;38.30;101705.50;5099699;28;20180;-68
2022/07/10 05:35:55;;;;;;;10.80;4.20;;;;;;;24.55;36.92;101709.00;5099791;28;20606;-68
2022/07/10 05:38:21;;;;;;;8.70;4.30;;;;;;;23.57;38.04;101709.38;5100190;28;20406;-68
2022/07/10 05:40:46;;;;;;;7.93;3.93;;;;;;;23.07;39.26;101721.41;5099743;28;20217;-69
2022/07/10 05:43:12;;;;;;;13.00;4.20;;;;;;;21.29;42.48;101719.25;5099208;28;20220;-67
2022/07/10 05:45:37;;;;;;;9.60;4.10;;;;;;;20.98;43.45;101727.78;5099761;28;20295;-67
2022/07/10 05:48:03;;;;;;;13.60;4.20;;;;;;;19.98;46.03;101732.84;5099506;28;20168;-67
2022/07/10 05:50:28;;;;;;;9.30;4.30;;;;;;;19.55;46.83;101722.78;5099708;28;20198;-68
2022/07/10 05:52:53;;;;;;;11.23;4.40;;;;;;;19.58;46.67;101725.38;5099946;28;20237;-67
2022/07/10 05:55:19;;;;;;;9.97;3.90;;;;;;;19.41;47.58;101726.47;5099427;28;20172;-68
2022/07/10 05:57:44;;;;;;;11.70;4.27;;;;;;;19.27;47.67;101729.25;5099376;28;20402;-67
2022/07/10 06:00:10;;;;;;;8.87;4.23;;;;;;;19.08;47.98;101732.97;5099798;28;20160;-67
2022/07/10 06:02:35;;;;;;;12.03;4.20;;;;;;;19.65;47.09;101719.16;5098390;28;20168;-67
2022/07/10 06:05:01;;;;;;;8.17;4.27;;;;;;;18.82;48.35;101734.97;5099034;28;20203;-67
2022/07/10 06:07:26;;;;;;;16.87;4.50;;;;;;;18.76;48.56;101742.94;5099538;28;20178;-67
2022/07/10 06:09:52;;;;;;;12.60;4.20;;;;;;;18.81;48.80;101738.47;5099119;28;20188;-67
2022/07/10 06:12:18;;;;;;;15.77;4.10;;;;;;;18.94;48.10;101741.03;5099087;28;20259;-69
2022/07/10 06:14:43;;;;;;;13.83;4.77;;;;;;;19.27;47.56;101737.19;5099557;28;20156;-69
2022/07/10 06:17:08;;;;;;;10.60;4.60;;;;;;;18.62;48.87;101743.03;5099207;28;20556;-69
2022/07/10 06:19:34;;;;;;;7.03;3.83;;;;;;;18.97;48.29;101735.72;5099050;28;20182;-69
2022/07/10 06:24:43;;;;;;;11.47;5.50;;;;;;;18.83;48.77;101741.09;5098619;28;20222;-70
2022/07/10 06:27:09;;;;;;;8.00;4.10;;;;;;;19.28;48.15;101738.06;5098899;28;20414;-70
2022/07/10 06:29:34;;;;;;;11.40;4.30;;;;;;;19.01;48.70;101742.72;5098686;28;20255;-69
2022/07/10 06:32:00;;;;;;;14.80;4.50;;;;;;;20.64;44.65;101730.97;5098802;28;20180;-69
2022/07/10 06:34:25;;;;;;;9.13;4.27;;;;;;;21.12;43.69;101728.41;5098913;28;20488;-69
2022/07/10 06:36:51;;;;;;;9.27;4.30;;;;;;;20.90;44.42;101735.00;5098827;28;20168;-69
2022/07/10 06:39:16;;;;;;;14.17;4.80;;;;;;;22.85;nan;101723.75;5098692;28;20156;-69
2022/07/10 06:41:41;;;;;;;9.60;4.07;;;;;;;25.16;nan;101720.28;5098204;28;20285;-69
2022/07/10 06:44:07;;;;;;;12.30;4.13;;;;;;;27.18;nan;101720.28;5098405;28;20215;-69
2022/07/10 06:46:32;;;;;;;8.00;3.80;;;;;;;26.35;nan;101726.47;5098610;28;20432;-69
2022/07/10 06:48:58;;;;;;;8.60;3.80;;;;;;;26.37;nan;101722.81;5098472;28;20236;-69
2022/07/10 06:51:24;;;;;;;9.73;4.20;;;;;;;25.93;nan;101719.22;5098585;28;20170;-71
2022/07/10 06:53:49;;;;;;;7.13;4.00;;;;;;;27.12;nan;101731.25;5098695;28;20494;-69
2022/07/10 06:56:15;;;;;;;8.70;3.90;;;;;;;26.53;nan;101711.47;5098430;28;20179;-68
2022/07/10 06:58:41;;;;;;;9.80;4.90;;;;;;;25.83;nan;101721.38;5098475;28;20191;-69
2022/07/10 07:01:06;;;;;;;8.80;4.13;;;;;;;25.95;nan;101714.69;5098622;28;20413;-69
2022/07/10 07:03:31;;;;;;;9.00;3.80;;;;;;;27.91;nan;101722.31;5097999;28;20164;-68
2022/07/10 07:05:57;;;;;;;5.93;3.50;;;;;;;26.21;nan;101724.38;5098239;28;20172;-69
2022/07/10 07:08:22;;;;;;;13.60;4.00;;;;;;;26.32;nan;101718.59;5098746;28;20233;-69
2022/07/10 07:10:48;;;;;;;7.83;3.90;;;;;;;25.98;nan;101717.22;5098318;28;20164;-67
2022/07/10 07:13:13;;;;;;;6.40;3.57;;;;;;;26.41;nan;101722.69;5098022;28;20168;-67
2022/07/10 07:15:42;;;;;;;13.00;4.77;;;;;;;25.59;nan;101712.50;5098668;28;20170;-68
2022/07/10 07:18:07;;;;;;;7.03;3.90;;;;;;;25.25;nan;101719.97;5097611;28;20459;-69
2022/07/10 07:23:28;;;;;;;8.80;3.90;;;;;;;26.04;nan;101715.22;5104947;28;20258;-69
2022/07/10 07:25:53;;;;;;;9.40;4.53;;;;;;;27.25;nan;101695.91;5097983;28;20509;-69
2022/07/10 07:28:19;;;;;;;8.40;3.60;;;;;;;27.75;nan;101703.41;5092837;28;20188;-69
2022/07/10 07:30:46;;;;;;;8.73;3.83;;;;;;;27.13;nan;101700.00;5078829;28;20169;-68
2022/07/10 07:33:12;;;;;;;9.60;3.87;;;;;;;25.44;nan;101704.16;5098439;28;20421;-68
2022/07/10 07:35:38;;;;;;;9.93;4.60;;;;;;;24.31;nan;101712.47;5097258;28;20418;-67
2022/07/10 07:38:03;;;;;;;10.33;3.67;;;;;;;25.94;nan;101699.56;5097883;28;20444;-69
2022/07/10 07:40:29;;;;;;;6.57;3.60;;;;;;;26.74;nan;101712.41;5098009;28;20172;-68
2022/07/10 07:42:55;;;;;;;7.20;4.10;;;;;;;27.81;nan;101692.41;5097768;28;20310;-68
2022/07/10 07:45:24;;;;;;;4.70;3.33;;;;;;;27.23;nan;101690.63;5097515;28;20464;-69
2022/07/10 07:47:55;;;;;;;5.87;3.30;;;;;;;26.08;nan;101704.41;5098376;28;20175;-71
2022/07/10 07:50:22;;;;;;;5.87;3.57;;;;;;;27.10;nan;101690.28;5097675;28;20506;-70
2022/07/10 07:52:48;;;;;;;7.70;3.40;;;;;;;29.18;nan;101695.38;5098095;28;20406;-69
2022/07/10 07:55:15;;;;;;;6.90;3.30;;;;;;;28.41;nan;101691.31;5102411;28;20493;-69
2022/07/10 07:57:41;;;;;;;6.67;3.20;;;;;;;28.86;nan;101683.66;5100900;28;20172;-68
2022/07/10 08:00:08;;;;;;;6.67;3.40;;;;;;;28.22;nan;101694.91;5101387;28;20433;-68
2022/07/10 08:02:34;;;;;;;5.67;3.20;;;;;;;28.24;nan;101694.84;5101785;28;20787;-70
2022/07/10 08:04:59;;;;;;;7.97;3.40;;;;;;;24.73;nan;101705.78;5101322;28;20472;-71
2022/07/10 08:07:44;;;;;;;7.93;4.20;;;;;;;24.63;nan;101711.44;5101391;28;20414;-67
2022/07/10 08:10:13;;;;;;;6.53;4.13;;;;;;;23.12;nan;101716.81;5100387;28;20557;-69
2022/07/10 08:12:40;;;;;;;6.57;3.50;;;;;;;25.78;nan;101707.34;5100878;28;20454;-69
2022/07/10 08:15:12;;;;;;;6.43;3.67;;;;;;;25.74;nan;101687.88;5100648;28;20414;-70
2022/07/10 08:17:38;;;;;;;11.83;3.90;;;;;;;26.10;nan;101702.53;5101267;28;20438;-69
2022/07/10 08:20:05;;;;;;;9.50;3.70;;;;;;;27.73;nan;101684.72;5101252;28;20442;-70
2022/07/10 08:22:31;;;;;;;6.63;3.77;;;;;;;25.93;nan;101706.72;5094293;28;20553;-69
2022/07/10 08:24:56;;;;;;;5.60;3.40;;;;;;;24.88;nan;101695.47;5099954;28;20467;-70
2022/07/10 08:27:22;;;;;;;9.03;4.27;;;;;;;26.92;nan;101685.78;5091224;28;20169;-70
2022/07/10 08:29:48;;;;;;;10.07;3.47;;;;;;;28.11;nan;101675.81;5089938;28;20172;-70
2022/07/10 08:32:13;;;;;;;7.80;3.93;;;;;;;27.14;nan;101688.34;5096553;28;20422;-70
2022/07/10 08:34:38;;;;;;;7.07;3.60;;;;;;;27.96;nan;101679.22;5100348;28;20432;-70
2022/07/10 08:37:04;;;;;;;6.37;3.30;;;;;;;28.68;nan;101669.41;5100197;28;20213;-70
2022/07/10 08:39:31;;;;;;;7.50;3.30;;;;;;;28.12;nan;101674.88;5089753;28;20177;-70
2022/07/10 08:41:56;;;;;;;9.53;3.37;;;;;;;25.95;nan;101687.97;5098581;28;20537;-70
2022/07/10 08:44:22;;;;;;;6.90;3.30;;;;;;;24.01;nan;101696.56;5100203;28;20579;-70
2022/07/10 08:46:47;;;;;;;13.03;4.30;;;;;;;25.34;nan;101690.28;5100247;28;20172;-70
2022/07/10 08:49:15;;;;;;;5.50;3.83;;;;;;;23.65;nan;101699.38;5099330;28;20237;-70
2022/07/10 08:51:49;;;;;;;7.40;3.67;;;;;;;26.46;nan;101685.94;5099288;28;20422;-71
2022/07/10 08:54:15;;;;;;;7.30;3.73;;;;;;;24.97;nan;101696.06;5098553;28;20434;-70
2022/07/10 08:56:41;;;;;;;8.80;4.10;;;;;;;26.26;nan;101697.44;5084096;28;20415;-71
2022/07/10 08:59:09;;;;;;;5.30;3.23;;;;;;;26.39;nan;101688.00;5091821;28;20827;-70
2022/07/10 09:01:35;;;;;;;6.37;3.73;;;;;;;25.53;nan;101687.78;5094862;28;20484;-71
2022/07/10 09:04:00;;;;;;;7.77;3.60;;;;;;;25.68;nan;101688.13;5098757;28;20511;-70
2022/07/10 09:06:28;;;;;;;5.97;3.40;;;;;;;23.97;nan;101694.91;5087249;28;20187;-71
2022/07/10 09:09:07;;;;;;;6.23;3.20;;;;;;;25.02;nan;101686.09;5099744;28;20188;-70
2022/07/10 09:11:33;;;;;;;8.23;3.07;;;;;;;26.93;nan;101684.81;5088197;28;20474;-69
2022/07/10 09:14:04;;;;;;;7.03;3.63;;;;;;;27.05;nan;101679.81;5094570;28;20509;-70
2022/07/10 09:16:34;;;;;;;5.67;3.13;;;;;;;26.72;nan;101698.19;5093398;28;20176;-71
2022/07/10 09:19:25;;;;;;;8.07;3.40;;;;;;;27.84;nan;101686.91;5098615;28;20469;-71
2022/07/10 09:21:52;;;;;;;6.10;3.53;;;;;;;28.98;nan;101677.63;5099304;28;20442;-70
2022/07/10 09:24:21;;;;;;;5.90;3.20;;;;;;;29.35;nan;101672.13;5100639;28;20745;-70
2022/07/10 09:27:07;;;;;;;7.30;3.20;;;;;;;28.61;nan;101676.88;5100401;28;20424;-70
2022/07/10 09:29:45;;;;;;;5.77;3.17;;;;;;;27.34;nan;101676.75;5098005;28;20438;-70
2022/07/10 09:32:11;;;;;;;5.43;3.13;;;;;;;26.76;nan;101675.72;5083978;28;20438;-69
2022/07/10 09:34:39;;;;;;;5.50;3.17;;;;;;;26.20;nan;101699.44;5099197;28;20795;-70
2022/07/10 09:37:25;;;;;;;6.53;3.07;;;;;;;26.66;nan;101695.78;5089503;28;20184;-70
2022/07/10 09:40:04;;;;;;;4.97;3.07;;;;;;;26.94;nan;101694.59;5096628;28;20434;-70
2022/07/10 09:42:40;;;;;;;7.20;3.40;;;;;;;26.97;nan;101689.13;5086883;28;20474;-70
2022/07/10 09:45:16;;;;;;;5.50;3.00;;;;;;;27.19;nan;101683.66;5095739;28;20465;-71
2022/07/10 09:47:51;;;;;;;6.10;2.97;;;;;;;27.05;nan;101701.22;5098744;28;20499;-69
2022/07/10 09:50:27;;;;;;;6.17;3.20;;;;;;;26.89;nan;101708.19;5096043;28;20504;-71
2022/07/10 09:52:57;;;;;;;8.83;3.33;;;;;;;25.49;nan;101701.31;5095257;28;20499;-69
2022/07/10 09:55:26;;;;;;;4.83;3.30;;;;;;;24.89;nan;101702.53;5095993;28;20689;-70
2022/07/10 09:58:09;;;;;;;5.77;3.47;;;;;;;25.79;nan;101707.28;5097074;28;20426;-70
2022/07/10 10:00:45;;;;;;;6.53;3.37;;;;;;;26.53;nan;101696.31;5097699;28;20429;-68
2022/07/10 10:03:13;;;;;;;6.17;3.40;;;;;;;28.11;nan;101688.34;5097908;28;20680;-69
2022/07/10 10:05:55;;;;;;;6.70;3.20;;;;;;;26.49;nan;101701.84;5098026;28;20453;-71
2022/07/10 10:08:30;;;;;;;9.40;3.40;;;;;;;26.32;nan;101698.06;5090960;28;20443;-70
2022/07/10 10:10:57;;;;;;;7.83;3.27;;;;;;;26.31;nan;101692.78;5090593;28;20459;-71
2022/07/10 10:13:27;;;;;;;7.50;2.90;;;;;;;26.87;nan;101689.53;5095144;28;20723;-71
2022/07/10 10:15:53;;;;;;;7.20;3.20;;;;;;;25.45;nan;101695.22;5086592;28;20849;-74
2022/07/10 10:18:20;;;;;;;7.40;3.10;;;;;;;26.85;nan;101695.88;5097793;28;20458;-73
2022/07/10 10:20:47;;;;;;;4.87;3.13;;;;;;;25.37;nan;101698.19;5096313;28;20579;-70
2022/07/10 10:23:14;;;;;;;7.60;2.93;;;;;;;27.69;nan;101690.31;5095015;28;20723;-71
2022/07/10 10:25:40;;;;;;;6.13;2.80;;;;;;;26.28;nan;101690.25;5094800;28;20705;-72
2022/07/10 10:28:08;;;;;;;7.37;3.27;;;;;;;25.55;nan;101696.59;5097471;28;20425;-71
2022/07/10 10:30:38;;;;;;;6.23;3.37;;;;;;;24.01;nan;101701.88;5095779;28;20439;-71
2022/07/10 10:33:03;;;;;;;6.67;3.13;;;;;;;23.77;nan;101696.34;5094811;28;20441;-72
2022/07/10 10:35:44;;;;;;;7.40;3.47;;;;;;;23.59;nan;101695.13;5096542;28;20429;-70
2022/07/10 10:38:09;;;;;;;5.33;3.27;;;;;;;24.41;nan;101689.03;5098161;28;20199;-69
2022/07/10 10:40:36;;;;;;;7.80;2.90;;;;;;;23.99;nan;101703.69;5093865;28;20430;-69
2022/07/10 10:55:36;;;;;;;6.10;3.40;;;;;;;25.94;29.98;101696.91;5074259;28;20547;-70
2022/07/10 10:58:18;;;;;;;5.57;2.90;;;;;;;25.44;29.88;101690.81;5074709;28;20431;-70
2022/07/10 11:00:44;;;;;;;7.07;3.40;;;;;;;26.01;29.16;101699.28;5073920;28;20191;-70
2022/07/10 11:03:21;;;;;;;8.40;3.33;;;;;;;25.89;29.16;101695.28;5075320;28;20411;-71
2022/07/10 11:05:48;;;;;;;5.50;2.60;;;;;;;24.50;29.96;101697.59;5074768;28;20431;-73
2022/07/10 11:08:13;;;;;;;5.30;3.10;;;;;;;26.16;28.73;101702.31;5075187;28;20415;-71
2022/07/10 11:10:40;;;;;;;9.53;3.10;;;;;;;25.05;29.86;101697.53;5074531;28;20427;-75
2022/07/10 11:13:13;;;;;;;6.83;3.20;;;;;;;25.64;30.07;101691.84;5074317;28;20180;-71
2022/07/10 11:15:46;;;;;;;6.70;3.43;;;;;;;23.89;32.78;101700.47;5074774;28;20889;-70
2022/07/10 11:18:18;;;;;;;3.50;2.70;;;;;;;24.60;31.53;101702.63;5074299;28;20439;-75
2022/07/10 11:20:46;;;;;;;4.90;2.83;;;;;;;24.30;32.16;101697.41;5074697;28;20611;-74
2022/07/10 11:23:30;;;;;;;6.83;2.97;;;;;;;23.30;33.69;101709.25;5074506;28;20408;-71
2022/07/10 11:26:12;;;;;;;6.33;3.03;;;;;;;24.09;32.90;101701.66;5074654;28;20441;-73
2022/07/10 11:28:43;;;;;;;7.03;3.00;;;;;;;25.33;31.17;101699.22;5072944;28;20411;-72
2022/07/10 11:31:08;;;;;;;4.50;2.80;;;;;;;23.92;33.27;101704.81;5076159;28;20430;-72
2022/07/10 11:33:43;;;;;;;5.20;2.60;;;;;;;23.24;34.02;101706.78;5072465;28;20427;-71
2022/07/10 11:36:12;;;;;;;7.10;2.93;;;;;;;24.32;32.08;101707.09;5073467;28;20173;-72
2022/07/10 11:38:38;;;;;;;4.90;2.70;;;;;;;24.35;31.86;101700.78;5073533;28;20494;-72
2022/07/10 11:41:04;;;;;;;5.07;3.00;;;;;;;24.05;31.94;101703.53;5071213;28;20444;-71
2022/07/10 11:43:29;;;;;;;5.63;2.70;;;;;;;23.13;33.85;101713.28;5074138;28;20455;-72
2022/07/10 11:45:59;;;;;;;6.00;3.00;;;;;;;23.26;33.40;101711.16;5074318;28;20188;-73
2022/07/10 11:48:24;;;;;;;5.70;3.20;;;;;;;24.23;31.90;101706.53;5071514;28;20490;-72